sensor_id;sensor_type;location;lat;lon;timestamp;P1;durP1;ratioP1;P2;durP2;ratioP2
76125;SDS011;65174;48.138;21.002;2023-03-19T00:00:21;44.08;;;15.25;;
76125;SDS011;65174;48.138;21.002;2023-03-19T00:03:23;36.85;;;15.00;;
76125;SDS011;65174;48.138;21.002;2023-03-19T00:06:25;34.85;;;13.35;;
76125;SDS011;65174;48.138;21.002;2023-03-19T00:09:28;27.27;;;12.20;;
76125;SDS011;65174;48.138;21.002;2023-03-19T00:12:30;23.27;;;12.17;;
76125;SDS011;65174;48.138;21.002;2023-03-19T00:15:32;21.70;;;11.48;;
76125;SDS011;65174;48.138;21.002;2023-03-19T00:18:35;23.73;;;12.10;;
76125;SDS011;65174;48.138;21.002;2023-03-19T00:21:37;23.20;;;12.18;;
76125;SDS011;65174;48.138;21.002;2023-03-19T00:24:39;20.37;;;11.70;;
76125;SDS011;65174;48.138;21.002;2023-03-19T00:27:41;23.83;;;11.80;;
76125;SDS011;65174;48.138;21.002;2023-03-19T00:30:44;22.83;;;12.40;;
76125;SDS011;65174;48.138;21.002;2023-03-19T00:33:46;25.95;;;12.70;;
76125;SDS011;65174;48.138;21.002;2023-03-19T00:36:49;28.50;;;13.05;;
76125;SDS011;65174;48.138;21.002;2023-03-19T00:39:51;24.85;;;11.88;;
76125;SDS011;65174;48.138;21.002;2023-03-19T00:42:53;27.63;;;12.70;;
76125;SDS011;65174;48.138;21.002;2023-03-19T00:45:55;23.05;;;11.25;;
76125;SDS011;65174;48.138;21.002;2023-03-19T00:48:58;18.85;;;9.82;;
76125;SDS011;65174;48.138;21.002;2023-03-19T00:52:00;16.60;;;8.90;;
76125;SDS011;65174;48.138;21.002;2023-03-19T00:55:03;17.17;;;9.23;;
76125;SDS011;65174;48.138;21.002;2023-03-19T00:58:05;16.30;;;8.93;;
76125;SDS011;65174;48.138;21.002;2023-03-19T01:01:10;17.30;;;8.80;;
76125;SDS011;65174;48.138;21.002;2023-03-19T01:04:14;17.15;;;8.38;;
76125;SDS011;65174;48.138;21.002;2023-03-19T01:07:16;13.40;;;8.23;;
76125;SDS011;65174;48.138;21.002;2023-03-19T01:10:19;14.60;;;8.73;;
76125;SDS011;65174;48.138;21.002;2023-03-19T01:13:23;16.07;;;8.77;;
76125;SDS011;65174;48.138;21.002;2023-03-19T01:16:25;17.58;;;8.98;;
76125;SDS011;65174;48.138;21.002;2023-03-19T01:19:28;20.73;;;8.35;;
76125;SDS011;65174;48.138;21.002;2023-03-19T01:22:30;15.68;;;9.23;;
76125;SDS011;65174;48.138;21.002;2023-03-19T01:25:37;14.90;;;8.47;;
76125;SDS011;65174;48.138;21.002;2023-03-19T01:28:40;18.50;;;9.37;;
76125;SDS011;65174;48.138;21.002;2023-03-19T01:31:43;18.65;;;10.18;;
76125;SDS011;65174;48.138;21.002;2023-03-19T01:35:05;18.27;;;9.13;;
76125;SDS011;65174;48.138;21.002;2023-03-19T01:38:08;20.17;;;10.15;;
76125;SDS011;65174;48.138;21.002;2023-03-19T01:41:10;18.65;;;9.85;;
76125;SDS011;65174;48.138;21.002;2023-03-19T01:47:45;25.15;;;11.80;;
76125;SDS011;65174;48.138;21.002;2023-03-19T01:50:47;18.90;;;10.82;;
76125;SDS011;65174;48.138;21.002;2023-03-19T01:54:03;21.83;;;11.63;;
76125;SDS011;65174;48.138;21.002;2023-03-19T01:57:26;19.42;;;11.43;;
76125;SDS011;65174;48.138;21.002;2023-03-19T02:00:40;18.93;;;11.20;;
76125;SDS011;65174;48.138;21.002;2023-03-19T02:03:43;21.08;;;10.82;;
76125;SDS011;65174;48.138;21.002;2023-03-19T02:06:53;23.40;;;12.20;;
76125;SDS011;65174;48.138;21.002;2023-03-19T02:09:57;21.70;;;11.27;;
76125;SDS011;65174;48.138;21.002;2023-03-19T02:13:01;23.10;;;11.93;;
76125;SDS011;65174;48.138;21.002;2023-03-19T02:16:04;21.80;;;11.53;;
76125;SDS011;65174;48.138;21.002;2023-03-19T02:19:08;20.80;;;11.77;;
76125;SDS011;65174;48.138;21.002;2023-03-19T02:22:15;22.42;;;12.35;;
76125;SDS011;65174;48.138;21.002;2023-03-19T02:25:31;20.25;;;11.27;;
76125;SDS011;65174;48.138;21.002;2023-03-19T02:28:41;29.13;;;12.20;;
76125;SDS011;65174;48.138;21.002;2023-03-19T02:31:46;22.30;;;12.53;;
76125;SDS011;65174;48.138;21.002;2023-03-19T02:34:48;20.67;;;12.43;;
76125;SDS011;65174;48.138;21.002;2023-03-19T02:37:50;21.15;;;12.32;;
76125;SDS011;65174;48.138;21.002;2023-03-19T02:44:05;22.48;;;12.32;;
76125;SDS011;65174;48.138;21.002;2023-03-19T02:47:10;22.37;;;12.50;;
76125;SDS011;65174;48.138;21.002;2023-03-19T02:50:13;24.75;;;13.48;;
76125;SDS011;65174;48.138;21.002;2023-03-19T02:53:15;21.48;;;12.27;;
76125;SDS011;65174;48.138;21.002;2023-03-19T02:56:18;22.27;;;12.40;;
76125;SDS011;65174;48.138;21.002;2023-03-19T02:59:20;31.40;;;13.83;;
76125;SDS011;65174;48.138;21.002;2023-03-19T03:02:22;29.03;;;13.67;;
76125;SDS011;65174;48.138;21.002;2023-03-19T03:05:25;22.73;;;12.93;;
76125;SDS011;65174;48.138;21.002;2023-03-19T03:08:27;22.48;;;12.63;;
76125;SDS011;65174;48.138;21.002;2023-03-19T03:11:29;22.30;;;11.70;;
76125;SDS011;65174;48.138;21.002;2023-03-19T03:14:31;26.23;;;12.80;;
76125;SDS011;65174;48.138;21.002;2023-03-19T03:17:37;24.27;;;13.00;;
76125;SDS011;65174;48.138;21.002;2023-03-19T03:20:43;22.05;;;12.43;;
76125;SDS011;65174;48.138;21.002;2023-03-19T03:23:46;22.60;;;11.98;;
76125;SDS011;65174;48.138;21.002;2023-03-19T03:26:49;22.92;;;12.85;;
76125;SDS011;65174;48.138;21.002;2023-03-19T03:29:51;22.50;;;12.50;;
76125;SDS011;65174;48.138;21.002;2023-03-19T03:32:53;22.33;;;12.43;;
76125;SDS011;65174;48.138;21.002;2023-03-19T03:35:58;24.45;;;12.85;;
76125;SDS011;65174;48.138;21.002;2023-03-19T03:39:01;28.38;;;14.25;;
76125;SDS011;65174;48.138;21.002;2023-03-19T03:42:03;28.27;;;14.85;;
76125;SDS011;65174;48.138;21.002;2023-03-19T03:45:07;28.38;;;14.45;;
76125;SDS011;65174;48.138;21.002;2023-03-19T03:48:10;27.80;;;14.47;;
76125;SDS011;65174;48.138;21.002;2023-03-19T03:51:12;27.20;;;14.85;;
76125;SDS011;65174;48.138;21.002;2023-03-19T03:54:15;25.25;;;13.77;;
76125;SDS011;65174;48.138;21.002;2023-03-19T03:57:18;29.23;;;15.13;;
76125;SDS011;65174;48.138;21.002;2023-03-19T04:00:20;29.17;;;14.90;;
76125;SDS011;65174;48.138;21.002;2023-03-19T04:03:23;29.67;;;15.43;;
76125;SDS011;65174;48.138;21.002;2023-03-19T04:06:27;33.78;;;16.30;;
76125;SDS011;65174;48.138;21.002;2023-03-19T04:09:44;32.50;;;16.55;;
76125;SDS011;65174;48.138;21.002;2023-03-19T04:12:47;30.90;;;16.35;;
76125;SDS011;65174;48.138;21.002;2023-03-19T04:15:50;28.97;;;15.77;;
76125;SDS011;65174;48.138;21.002;2023-03-19T04:18:55;32.53;;;15.57;;
76125;SDS011;65174;48.138;21.002;2023-03-19T04:21:58;33.65;;;15.73;;
76125;SDS011;65174;48.138;21.002;2023-03-19T04:25:01;34.97;;;16.05;;
76125;SDS011;65174;48.138;21.002;2023-03-19T04:28:04;34.47;;;16.85;;
76125;SDS011;65174;48.138;21.002;2023-03-19T04:31:07;33.47;;;15.70;;
76125;SDS011;65174;48.138;21.002;2023-03-19T04:34:16;33.87;;;14.80;;
76125;SDS011;65174;48.138;21.002;2023-03-19T04:37:18;33.17;;;15.70;;
76125;SDS011;65174;48.138;21.002;2023-03-19T04:40:23;32.00;;;15.82;;
76125;SDS011;65174;48.138;21.002;2023-03-19T04:43:26;33.88;;;17.05;;
76125;SDS011;65174;48.138;21.002;2023-03-19T04:46:31;33.43;;;15.50;;
76125;SDS011;65174;48.138;21.002;2023-03-19T04:49:33;33.70;;;16.50;;
76125;SDS011;65174;48.138;21.002;2023-03-19T04:52:37;35.20;;;17.05;;
76125;SDS011;65174;48.138;21.002;2023-03-19T04:55:40;29.02;;;15.52;;
76125;SDS011;65174;48.138;21.002;2023-03-19T04:58:48;29.30;;;15.73;;
76125;SDS011;65174;48.138;21.002;2023-03-19T05:01:51;29.83;;;15.90;;
76125;SDS011;65174;48.138;21.002;2023-03-19T05:04:56;30.20;;;16.33;;
76125;SDS011;65174;48.138;21.002;2023-03-19T05:07:58;39.92;;;15.57;;
76125;SDS011;65174;48.138;21.002;2023-03-19T05:11:01;29.48;;;14.60;;
76125;SDS011;65174;48.138;21.002;2023-03-19T05:14:12;37.13;;;15.23;;
76125;SDS011;65174;48.138;21.002;2023-03-19T05:17:33;28.50;;;15.10;;
76125;SDS011;65174;48.138;21.002;2023-03-19T05:20:53;29.43;;;15.63;;
76125;SDS011;65174;48.138;21.002;2023-03-19T05:23:56;28.95;;;14.63;;
76125;SDS011;65174;48.138;21.002;2023-03-19T05:27:00;29.33;;;14.88;;
76125;SDS011;65174;48.138;21.002;2023-03-19T05:30:11;29.40;;;14.77;;
76125;SDS011;65174;48.138;21.002;2023-03-19T05:33:25;33.97;;;15.13;;
76125;SDS011;65174;48.138;21.002;2023-03-19T05:36:28;30.27;;;15.10;;
76125;SDS011;65174;48.138;21.002;2023-03-19T05:39:39;29.23;;;15.57;;
76125;SDS011;65174;48.138;21.002;2023-03-19T05:42:43;26.80;;;16.17;;
76125;SDS011;65174;48.138;21.002;2023-03-19T05:45:49;29.23;;;16.17;;
76125;SDS011;65174;48.138;21.002;2023-03-19T05:48:56;29.60;;;15.27;;
76125;SDS011;65174;48.138;21.002;2023-03-19T05:51:59;33.10;;;17.37;;
76125;SDS011;65174;48.138;21.002;2023-03-19T05:55:03;27.23;;;15.20;;
76125;SDS011;65174;48.138;21.002;2023-03-19T05:58:15;23.17;;;12.25;;
76125;SDS011;65174;48.138;21.002;2023-03-19T06:01:19;22.25;;;11.95;;
76125;SDS011;65174;48.138;21.002;2023-03-19T06:04:24;22.70;;;13.60;;
76125;SDS011;65174;48.138;21.002;2023-03-19T06:07:27;60.77;;;29.00;;
76125;SDS011;65174;48.138;21.002;2023-03-19T06:10:33;82.25;;;39.45;;
76125;SDS011;65174;48.138;21.002;2023-03-19T06:13:42;41.45;;;19.20;;
76125;SDS011;65174;48.138;21.002;2023-03-19T06:16:48;34.53;;;18.17;;
76125;SDS011;65174;48.138;21.002;2023-03-19T06:19:50;33.03;;;14.77;;
76125;SDS011;65174;48.138;21.002;2023-03-19T06:22:52;26.67;;;12.53;;
76125;SDS011;65174;48.138;21.002;2023-03-19T06:25:56;18.50;;;11.73;;
76125;SDS011;65174;48.138;21.002;2023-03-19T06:29:01;16.27;;;9.50;;
76125;SDS011;65174;48.138;21.002;2023-03-19T06:32:04;14.30;;;8.40;;
76125;SDS011;65174;48.138;21.002;2023-03-19T06:35:11;16.80;;;8.45;;
76125;SDS011;65174;48.138;21.002;2023-03-19T06:38:17;16.00;;;9.33;;
76125;SDS011;65174;48.138;21.002;2023-03-19T06:41:19;19.40;;;10.13;;
76125;SDS011;65174;48.138;21.002;2023-03-19T06:44:22;20.10;;;11.45;;
76125;SDS011;65174;48.138;21.002;2023-03-19T06:47:26;42.25;;;18.05;;
76125;SDS011;65174;48.138;21.002;2023-03-19T06:50:28;32.53;;;18.02;;
76125;SDS011;65174;48.138;21.002;2023-03-19T06:53:30;30.47;;;16.03;;
76125;SDS011;65174;48.138;21.002;2023-03-19T06:56:32;32.33;;;17.52;;
76125;SDS011;65174;48.138;21.002;2023-03-19T06:59:34;27.05;;;13.45;;
76125;SDS011;65174;48.138;21.002;2023-03-19T07:02:37;29.10;;;16.30;;
76125;SDS011;65174;48.138;21.002;2023-03-19T07:05:39;33.47;;;16.48;;
76125;SDS011;65174;48.138;21.002;2023-03-19T07:08:41;31.20;;;15.97;;
76125;SDS011;65174;48.138;21.002;2023-03-19T07:11:47;26.55;;;15.30;;
76125;SDS011;65174;48.138;21.002;2023-03-19T07:14:49;25.13;;;12.75;;
76125;SDS011;65174;48.138;21.002;2023-03-19T07:17:51;21.95;;;12.50;;
76125;SDS011;65174;48.138;21.002;2023-03-19T07:20:54;22.35;;;12.32;;
76125;SDS011;65174;48.138;21.002;2023-03-19T07:23:56;23.97;;;9.87;;
76125;SDS011;65174;48.138;21.002;2023-03-19T07:26:58;20.60;;;11.70;;
76125;SDS011;65174;48.138;21.002;2023-03-19T07:30:00;16.90;;;9.55;;
76125;SDS011;65174;48.138;21.002;2023-03-19T07:33:03;19.85;;;11.25;;
76125;SDS011;65174;48.138;21.002;2023-03-19T07:36:08;18.23;;;10.15;;
76125;SDS011;65174;48.138;21.002;2023-03-19T07:39:10;19.40;;;11.10;;
76125;SDS011;65174;48.138;21.002;2023-03-19T07:42:12;18.40;;;9.43;;
76125;SDS011;65174;48.138;21.002;2023-03-19T07:45:15;19.05;;;9.98;;
76125;SDS011;65174;48.138;21.002;2023-03-19T07:48:17;17.08;;;10.13;;
76125;SDS011;65174;48.138;21.002;2023-03-19T07:51:20;24.48;;;9.90;;
76125;SDS011;65174;48.138;21.002;2023-03-19T07:54:22;16.97;;;10.10;;
76125;SDS011;65174;48.138;21.002;2023-03-19T07:57:25;14.80;;;8.48;;
76125;SDS011;65174;48.138;21.002;2023-03-19T08:00:27;10.20;;;6.70;;
76125;SDS011;65174;48.138;21.002;2023-03-19T08:03:30;8.68;;;5.60;;
76125;SDS011;65174;48.138;21.002;2023-03-19T08:06:32;11.77;;;6.35;;
76125;SDS011;65174;48.138;21.002;2023-03-19T08:09:35;10.87;;;6.90;;
76125;SDS011;65174;48.138;21.002;2023-03-19T08:12:38;6.88;;;4.90;;
76125;SDS011;65174;48.138;21.002;2023-03-19T08:15:41;6.70;;;4.43;;
76125;SDS011;65174;48.138;21.002;2023-03-19T08:18:43;8.52;;;4.68;;
76125;SDS011;65174;48.138;21.002;2023-03-19T08:21:45;8.50;;;5.32;;
76125;SDS011;65174;48.138;21.002;2023-03-19T08:24:47;8.30;;;5.13;;
76125;SDS011;65174;48.138;21.002;2023-03-19T08:27:50;7.85;;;4.80;;
76125;SDS011;65174;48.138;21.002;2023-03-19T08:30:52;8.30;;;4.20;;
76125;SDS011;65174;48.138;21.002;2023-03-19T08:33:56;5.88;;;4.20;;
76125;SDS011;65174;48.138;21.002;2023-03-19T08:37:00;7.72;;;4.05;;
76125;SDS011;65174;48.138;21.002;2023-03-19T08:40:03;6.80;;;4.80;;
76125;SDS011;65174;48.138;21.002;2023-03-19T08:43:06;8.07;;;5.10;;
76125;SDS011;65174;48.138;21.002;2023-03-19T08:46:08;12.07;;;5.22;;
76125;SDS011;65174;48.138;21.002;2023-03-19T08:49:11;8.55;;;5.30;;
76125;SDS011;65174;48.138;21.002;2023-03-19T08:52:13;6.90;;;4.40;;
76125;SDS011;65174;48.138;21.002;2023-03-19T08:55:16;6.40;;;4.07;;
76125;SDS011;65174;48.138;21.002;2023-03-19T08:58:18;7.10;;;4.25;;
76125;SDS011;65174;48.138;21.002;2023-03-19T09:01:21;9.00;;;5.47;;
76125;SDS011;65174;48.138;21.002;2023-03-19T09:04:25;6.68;;;3.95;;
76125;SDS011;65174;48.138;21.002;2023-03-19T09:07:27;7.32;;;4.20;;
76125;SDS011;65174;48.138;21.002;2023-03-19T09:10:29;6.47;;;4.17;;
76125;SDS011;65174;48.138;21.002;2023-03-19T09:13:32;6.68;;;4.65;;
76125;SDS011;65174;48.138;21.002;2023-03-19T09:16:34;8.38;;;4.68;;
76125;SDS011;65174;48.138;21.002;2023-03-19T09:19:37;6.65;;;4.78;;
76125;SDS011;65174;48.138;21.002;2023-03-19T09:22:39;8.27;;;6.30;;
76125;SDS011;65174;48.138;21.002;2023-03-19T09:25:41;11.17;;;7.23;;
76125;SDS011;65174;48.138;21.002;2023-03-19T09:28:43;19.08;;;11.05;;
76125;SDS011;65174;48.138;21.002;2023-03-19T09:31:45;10.20;;;6.28;;
76125;SDS011;65174;48.138;21.002;2023-03-19T09:34:47;10.68;;;5.80;;
76125;SDS011;65174;48.138;21.002;2023-03-19T09:37:49;10.75;;;6.45;;
76125;SDS011;65174;48.138;21.002;2023-03-19T09:44:23;10.25;;;5.80;;
76125;SDS011;65174;48.138;21.002;2023-03-19T09:50:33;9.75;;;5.90;;
76125;SDS011;65174;48.138;21.002;2023-03-19T09:53:39;10.27;;;5.55;;
76125;SDS011;65174;48.138;21.002;2023-03-19T09:57:06;12.63;;;5.43;;
76125;SDS011;65174;48.138;21.002;2023-03-19T10:06:49;13.60;;;5.72;;
76125;SDS011;65174;48.138;21.002;2023-03-19T10:13:37;9.33;;;4.83;;
76125;SDS011;65174;48.138;21.002;2023-03-19T10:16:54;6.60;;;3.90;;
76125;SDS011;65174;48.138;21.002;2023-03-19T10:20:08;14.48;;;5.18;;
76125;SDS011;65174;48.138;21.002;2023-03-19T10:23:33;17.85;;;5.80;;
76125;SDS011;65174;48.138;21.002;2023-03-19T10:26:41;8.65;;;5.30;;
76125;SDS011;65174;48.138;21.002;2023-03-19T10:29:44;8.83;;;5.47;;
76125;SDS011;65174;48.138;21.002;2023-03-19T10:32:50;8.63;;;4.72;;
76125;SDS011;65174;48.138;21.002;2023-03-19T10:35:59;7.43;;;4.75;;
76125;SDS011;65174;48.138;21.002;2023-03-19T10:39:07;7.65;;;4.57;;
76125;SDS011;65174;48.138;21.002;2023-03-19T10:42:21;6.57;;;4.22;;
76125;SDS011;65174;48.138;21.002;2023-03-19T10:45:51;13.73;;;5.57;;
76125;SDS011;65174;48.138;21.002;2023-03-19T10:48:55;8.15;;;5.13;;
76125;SDS011;65174;48.138;21.002;2023-03-19T10:51:58;8.18;;;4.95;;
76125;SDS011;65174;48.138;21.002;2023-03-19T10:55:47;6.32;;;4.03;;
76125;SDS011;65174;48.138;21.002;2023-03-19T10:58:27;8.00;;;4.80;;
76125;SDS011;65174;48.138;21.002;2023-03-19T11:01:38;7.60;;;4.67;;
76125;SDS011;65174;48.138;21.002;2023-03-19T11:04:42;6.07;;;4.38;;
76125;SDS011;65174;48.138;21.002;2023-03-19T11:07:45;7.75;;;5.15;;
76125;SDS011;65174;48.138;21.002;2023-03-19T11:10:51;6.88;;;4.97;;
76125;SDS011;65174;48.138;21.002;2023-03-19T11:13:53;8.60;;;5.50;;
76125;SDS011;65174;48.138;21.002;2023-03-19T11:20:30;6.10;;;4.43;;
76125;SDS011;65174;48.138;21.002;2023-03-19T11:23:38;7.75;;;4.82;;
76125;SDS011;65174;48.138;21.002;2023-03-19T11:26:42;7.85;;;4.50;;
76125;SDS011;65174;48.138;21.002;2023-03-19T11:29:54;13.57;;;4.20;;
76125;SDS011;65174;48.138;21.002;2023-03-19T11:33:03;6.73;;;4.07;;
76125;SDS011;65174;48.138;21.002;2023-03-19T11:39:23;6.15;;;4.15;;
76125;SDS011;65174;48.138;21.002;2023-03-19T11:43:11;7.50;;;4.65;;
76125;SDS011;65174;48.138;21.002;2023-03-19T11:53:00;7.95;;;4.72;;
76125;SDS011;65174;48.138;21.002;2023-03-19T12:09:24;5.75;;;3.72;;
76125;SDS011;65174;48.138;21.002;2023-03-19T12:16:12;5.50;;;3.72;;
76125;SDS011;65174;48.138;21.002;2023-03-19T12:19:29;11.90;;;10.05;;
76125;SDS011;65174;48.138;21.002;2023-03-19T12:26:07;6.72;;;4.28;;
76125;SDS011;65174;48.138;21.002;2023-03-19T12:35:45;6.35;;;4.05;;
76125;SDS011;65174;48.138;21.002;2023-03-19T12:38:57;6.40;;;3.83;;
76125;SDS011;65174;48.138;21.002;2023-03-19T12:42:03;8.13;;;3.88;;
76125;SDS011;65174;48.138;21.002;2023-03-19T12:45:18;5.38;;;3.92;;
76125;SDS011;65174;48.138;21.002;2023-03-19T12:48:28;5.93;;;3.88;;
76125;SDS011;65174;48.138;21.002;2023-03-19T12:51:35;6.88;;;4.13;;
76125;SDS011;65174;48.138;21.002;2023-03-19T12:54:43;11.53;;;3.90;;
76125;SDS011;65174;48.138;21.002;2023-03-19T12:57:57;7.97;;;3.95;;
76125;SDS011;65174;48.138;21.002;2023-03-19T13:01:06;8.52;;;3.35;;
76125;SDS011;65174;48.138;21.002;2023-03-19T13:07:27;5.38;;;3.65;;
76125;SDS011;65174;48.138;21.002;2023-03-19T13:10:40;4.50;;;3.33;;
76125;SDS011;65174;48.138;21.002;2023-03-19T13:13:57;13.15;;;8.15;;
76125;SDS011;65174;48.138;21.002;2023-03-19T13:20:25;9.77;;;5.32;;
76125;SDS011;65174;48.138;21.002;2023-03-19T13:23:44;11.38;;;5.80;;
76125;SDS011;65174;48.138;21.002;2023-03-19T13:26:55;8.00;;;4.10;;
76125;SDS011;65174;48.138;21.002;2023-03-19T13:30:06;9.30;;;5.10;;
76125;SDS011;65174;48.138;21.002;2023-03-19T13:33:20;7.30;;;5.13;;
76125;SDS011;65174;48.138;21.002;2023-03-19T13:36:24;5.72;;;3.80;;
76125;SDS011;65174;48.138;21.002;2023-03-19T13:39:30;15.13;;;6.60;;
76125;SDS011;65174;48.138;21.002;2023-03-19T13:42:36;10.87;;;5.50;;
76125;SDS011;65174;48.138;21.002;2023-03-19T13:45:42;15.50;;;7.72;;
76125;SDS011;65174;48.138;21.002;2023-03-19T13:51:47;9.80;;;5.00;;
76125;SDS011;65174;48.138;21.002;2023-03-19T13:54:51;10.38;;;5.10;;
76125;SDS011;65174;48.138;21.002;2023-03-19T14:01:38;9.27;;;5.22;;
76125;SDS011;65174;48.138;21.002;2023-03-19T14:04:43;6.20;;;3.80;;
76125;SDS011;65174;48.138;21.002;2023-03-19T14:07:53;39.25;;;15.30;;
76125;SDS011;65174;48.138;21.002;2023-03-19T14:11:00;24.63;;;10.43;;
76125;SDS011;65174;48.138;21.002;2023-03-19T14:14:04;54.63;;;29.73;;
76125;SDS011;65174;48.138;21.002;2023-03-19T14:17:35;62.15;;;33.33;;
76125;SDS011;65174;48.138;21.002;2023-03-19T14:20:44;16.10;;;9.70;;
76125;SDS011;65174;48.138;21.002;2023-03-19T14:27:56;16.98;;;9.60;;
76125;SDS011;65174;48.138;21.002;2023-03-19T14:31:02;9.23;;;5.60;;
76125;SDS011;65174;48.138;21.002;2023-03-19T14:37:45;24.13;;;11.35;;
76125;SDS011;65174;48.138;21.002;2023-03-19T14:40:50;19.73;;;9.63;;
76125;SDS011;65174;48.138;21.002;2023-03-19T14:47:17;23.37;;;12.33;;
76125;SDS011;65174;48.138;21.002;2023-03-19T14:57:26;11.57;;;6.60;;
76125;SDS011;65174;48.138;21.002;2023-03-19T15:01:04;9.57;;;4.80;;
76125;SDS011;65174;48.138;21.002;2023-03-19T15:03:59;10.80;;;6.17;;
76125;SDS011;65174;48.138;21.002;2023-03-19T15:07:09;21.42;;;8.50;;
76125;SDS011;65174;48.138;21.002;2023-03-19T15:10:22;17.13;;;8.18;;
76125;SDS011;65174;48.138;21.002;2023-03-19T15:13:31;15.25;;;8.40;;
76125;SDS011;65174;48.138;21.002;2023-03-19T15:16:45;11.48;;;6.32;;
76125;SDS011;65174;48.138;21.002;2023-03-19T15:20:19;24.37;;;9.57;;
76125;SDS011;65174;48.138;21.002;2023-03-19T15:23:24;14.50;;;6.07;;
76125;SDS011;65174;48.138;21.002;2023-03-19T15:26:30;23.30;;;8.20;;
76125;SDS011;65174;48.138;21.002;2023-03-19T15:29:33;16.63;;;7.80;;
76125;SDS011;65174;48.138;21.002;2023-03-19T15:32:39;17.98;;;9.25;;
76125;SDS011;65174;48.138;21.002;2023-03-19T15:39:14;40.50;;;19.83;;
76125;SDS011;65174;48.138;21.002;2023-03-19T15:42:21;9.05;;;5.97;;
76125;SDS011;65174;48.138;21.002;2023-03-19T15:45:27;12.25;;;6.80;;
76125;SDS011;65174;48.138;21.002;2023-03-19T15:48:35;12.27;;;6.80;;
76125;SDS011;65174;48.138;21.002;2023-03-19T15:51:46;17.03;;;8.63;;
76125;SDS011;65174;48.138;21.002;2023-03-19T15:54:54;16.23;;;8.50;;
76125;SDS011;65174;48.138;21.002;2023-03-19T15:57:57;17.95;;;7.53;;
76125;SDS011;65174;48.138;21.002;2023-03-19T16:01:07;16.38;;;6.70;;
76125;SDS011;65174;48.138;21.002;2023-03-19T16:04:13;61.15;;;18.95;;
76125;SDS011;65174;48.138;21.002;2023-03-19T16:08:07;28.40;;;10.57;;
76125;SDS011;65174;48.138;21.002;2023-03-19T16:10:51;34.25;;;13.45;;
76125;SDS011;65174;48.138;21.002;2023-03-19T16:14:01;27.65;;;12.43;;
76125;SDS011;65174;48.138;21.002;2023-03-19T16:17:16;28.40;;;14.13;;
76125;SDS011;65174;48.138;21.002;2023-03-19T16:20:21;21.13;;;9.45;;
76125;SDS011;65174;48.138;21.002;2023-03-19T16:23:25;30.33;;;13.40;;
76125;SDS011;65174;48.138;21.002;2023-03-19T16:26:36;28.02;;;12.75;;
76125;SDS011;65174;48.138;21.002;2023-03-19T16:29:45;26.75;;;12.80;;
76125;SDS011;65174;48.138;21.002;2023-03-19T16:32:58;32.97;;;13.05;;
76125;SDS011;65174;48.138;21.002;2023-03-19T16:36:08;22.75;;;10.43;;
76125;SDS011;65174;48.138;21.002;2023-03-19T16:45:30;13.07;;;5.68;;
76125;SDS011;65174;48.138;21.002;2023-03-19T16:48:34;17.05;;;7.25;;
76125;SDS011;65174;48.138;21.002;2023-03-19T16:51:37;39.95;;;11.73;;
76125;SDS011;65174;48.138;21.002;2023-03-19T16:54:40;44.93;;;10.77;;
76125;SDS011;65174;48.138;21.002;2023-03-19T16:57:43;42.33;;;11.52;;
76125;SDS011;65174;48.138;21.002;2023-03-19T17:00:46;24.75;;;8.20;;
76125;SDS011;65174;48.138;21.002;2023-03-19T17:03:49;22.13;;;8.20;;
76125;SDS011;65174;48.138;21.002;2023-03-19T17:06:52;15.80;;;7.63;;
76125;SDS011;65174;48.138;21.002;2023-03-19T17:09:54;14.47;;;7.67;;
76125;SDS011;65174;48.138;21.002;2023-03-19T17:12:57;20.42;;;7.22;;
76125;SDS011;65174;48.138;21.002;2023-03-19T17:16:04;15.02;;;6.72;;
76125;SDS011;65174;48.138;21.002;2023-03-19T17:19:08;15.32;;;7.30;;
76125;SDS011;65174;48.138;21.002;2023-03-19T17:22:19;18.95;;;7.88;;
76125;SDS011;65174;48.138;21.002;2023-03-19T17:25:23;24.50;;;11.37;;
76125;SDS011;65174;48.138;21.002;2023-03-19T17:28:26;25.35;;;12.80;;
76125;SDS011;65174;48.138;21.002;2023-03-19T17:31:29;25.35;;;12.07;;
76125;SDS011;65174;48.138;21.002;2023-03-19T17:34:34;23.58;;;11.43;;
76125;SDS011;65174;48.138;21.002;2023-03-19T17:37:45;31.08;;;11.57;;
76125;SDS011;65174;48.138;21.002;2023-03-19T17:40:48;27.13;;;13.23;;
76125;SDS011;65174;48.138;21.002;2023-03-19T17:43:51;22.30;;;12.10;;
76125;SDS011;65174;48.138;21.002;2023-03-19T17:46:54;23.80;;;13.20;;
76125;SDS011;65174;48.138;21.002;2023-03-19T17:49:57;24.80;;;10.60;;
76125;SDS011;65174;48.138;21.002;2023-03-19T17:53:00;20.63;;;10.48;;
76125;SDS011;65174;48.138;21.002;2023-03-19T17:56:03;28.40;;;16.27;;
76125;SDS011;65174;48.138;21.002;2023-03-19T17:59:05;24.45;;;12.80;;
76125;SDS011;65174;48.138;21.002;2023-03-19T18:02:21;21.80;;;11.55;;
76125;SDS011;65174;48.138;21.002;2023-03-19T18:05:27;29.95;;;13.18;;
76125;SDS011;65174;48.138;21.002;2023-03-19T18:08:30;42.17;;;16.98;;
76125;SDS011;65174;48.138;21.002;2023-03-19T18:11:32;38.33;;;16.43;;
76125;SDS011;65174;48.138;21.002;2023-03-19T18:15:34;28.58;;;14.30;;
76125;SDS011;65174;48.138;21.002;2023-03-19T18:18:37;34.45;;;18.38;;
76125;SDS011;65174;48.138;21.002;2023-03-19T18:21:44;37.35;;;18.30;;
76125;SDS011;65174;48.138;21.002;2023-03-19T18:24:47;33.97;;;16.38;;
76125;SDS011;65174;48.138;21.002;2023-03-19T18:27:50;26.37;;;13.50;;
76125;SDS011;65174;48.138;21.002;2023-03-19T18:30:53;17.13;;;10.25;;
76125;SDS011;65174;48.138;21.002;2023-03-19T18:33:57;18.45;;;9.82;;
76125;SDS011;65174;48.138;21.002;2023-03-19T18:37:02;16.48;;;9.07;;
76125;SDS011;65174;48.138;21.002;2023-03-19T18:40:05;17.58;;;8.90;;
76125;SDS011;65174;48.138;21.002;2023-03-19T18:43:08;22.03;;;11.07;;
76125;SDS011;65174;48.138;21.002;2023-03-19T18:46:13;29.00;;;14.80;;
76125;SDS011;65174;48.138;21.002;2023-03-19T18:49:24;32.72;;;15.18;;
76125;SDS011;65174;48.138;21.002;2023-03-19T18:52:27;57.88;;;25.15;;
76125;SDS011;65174;48.138;21.002;2023-03-19T18:55:30;38.60;;;18.67;;
76125;SDS011;65174;48.138;21.002;2023-03-19T18:58:33;23.83;;;13.73;;
76125;SDS011;65174;48.138;21.002;2023-03-19T19:01:35;21.27;;;12.18;;
76125;SDS011;65174;48.138;21.002;2023-03-19T19:04:38;29.25;;;14.20;;
76125;SDS011;65174;48.138;21.002;2023-03-19T19:07:41;33.95;;;14.85;;
76125;SDS011;65174;48.138;21.002;2023-03-19T19:10:52;40.42;;;18.27;;
76125;SDS011;65174;48.138;21.002;2023-03-19T19:13:57;54.33;;;21.17;;
76125;SDS011;65174;48.138;21.002;2023-03-19T19:17:01;74.78;;;28.33;;
76125;SDS011;65174;48.138;21.002;2023-03-19T19:20:06;49.45;;;23.33;;
76125;SDS011;65174;48.138;21.002;2023-03-19T19:23:17;33.70;;;17.55;;
76125;SDS011;65174;48.138;21.002;2023-03-19T19:26:22;35.50;;;16.65;;
76125;SDS011;65174;48.138;21.002;2023-03-19T19:29:28;26.83;;;12.63;;
76125;SDS011;65174;48.138;21.002;2023-03-19T19:32:31;21.75;;;10.32;;
76125;SDS011;65174;48.138;21.002;2023-03-19T19:35:36;21.55;;;10.00;;
76125;SDS011;65174;48.138;21.002;2023-03-19T19:38:38;25.95;;;11.95;;
76125;SDS011;65174;48.138;21.002;2023-03-19T19:41:40;21.02;;;10.07;;
76125;SDS011;65174;48.138;21.002;2023-03-19T19:44:54;32.47;;;13.57;;